CMA CGM Columba — 2DBC9 — position and weather

sailwx.info

Track history (hours):
 
Tides and Currents Weather Stations Pressure Air Temp Water Temp Dewpoint Dewpoint Depression Visibility Wind Speed Wind Dir Waves Ship Positions

CMA CGM Columba

Last reported at 2017-Mar-16 00:34 UTC. Time now 2017-Mar-23 18:33 UTC.
Position N 38°11' W 124°11'.

Length 363 m; draft 13.2 m.

Type: Ship (hazmat cat A). MMSI: 235077448.

Date/timePositionNaut miles runAvg speedWind from/ knotsBaromVisibWave heightAir tempDewpointWater temp
2017-Mar-16 00:34N 38°11' W 124°11'1313.1
2017-Mar-15 23:33N 38°11' W 123°55'1313.0
2017-Mar-15 22:34N 38°10' W 123°38'1312.7
2017-Mar-15 21:33N 38°09' W 123°22'1212.3
2017-Mar-15 20:34N 38°01' W 123°11'1313.0
2017-Mar-15 19:33N 37°53' W 122°57'1312.9
2017-Mar-15 18:33N 37°46' W 122°44'1111.1
2017-Mar-15 17:33N 37°49' W 122°30'8 8.4
2017-Mar-15 16:33N 37°48' W 122°20'2 1.8
2017-Mar-15 15:33N 37°48' W 122°17'1 1.2
2017-Mar-15 14:31N 37°48' W 122°19'0 0.0
2017-Mar-15 13:31N 37°48' W 122°19'0 0.0
2017-Mar-15 12:31N 37°48' W 122°19'0 0.0
2017-Mar-15 11:31N 37°48' W 122°19'0 0.0
2017-Mar-15 10:31N 37°48' W 122°19'0 0.0
2017-Mar-15 09:31N 37°48' W 122°19'0 0.0
2017-Mar-15 08:31N 37°48' W 122°19'0 0.0
2017-Mar-15 07:31N 37°48' W 122°19'0 0.0
2017-Mar-15 06:31N 37°48' W 122°19'0 0.0
2017-Mar-15 05:31N 37°48' W 122°19'0 0.0
2017-Mar-15 04:31N 37°48' W 122°19'0 0.0
2017-Mar-15 03:31N 37°48' W 122°19'0 0.0
2017-Mar-15 02:31N 37°48' W 122°19'0 0.0
2017-Mar-15 01:31N 37°48' W 122°19'0 0.0
2017-Mar-15 00:31N 37°48' W 122°19'0 0.0
2017-Mar-14 23:31N 37°48' W 122°19'0 0.0
2017-Mar-14 22:31N 37°48' W 122°19'0 0.0
2017-Mar-14 21:31N 37°48' W 122°19'0 0.0
2017-Mar-14 20:31N 37°48' W 122°19'0 0.0
2017-Mar-14 19:31N 37°48' W 122°19'0 0.0
2017-Mar-14 18:31N 37°48' W 122°19'0 0.0
2017-Mar-14 17:31N 37°48' W 122°19'0 0.0
2017-Mar-14 16:31N 37°48' W 122°19'0 0.0
2017-Mar-14 15:31N 37°48' W 122°19'0 0.0
2017-Mar-14 14:31N 37°48' W 122°19'0 0.0
2017-Mar-14 13:31N 37°48' W 122°19'0 0.0
2017-Mar-14 12:31N 37°48' W 122°19'0 0.0
2017-Mar-14 11:31N 37°48' W 122°19'0 0.0
2017-Mar-14 10:31N 37°48' W 122°19'0 0.0
2017-Mar-14 09:31N 37°48' W 122°19'0 0.0
2017-Mar-14 08:31N 37°48' W 122°19'0 0.0
2017-Mar-14 07:31N 37°48' W 122°19'0 0.0
2017-Mar-14 06:31N 37°48' W 122°19'0 0.0
2017-Mar-14 05:31N 37°48' W 122°19'0 0.0
2017-Mar-14 04:31N 37°48' W 122°19'0 0.0
2017-Mar-14 03:32N 37°48' W 122°19'7 6.8
2017-Mar-14 02:33N 37°49' W 122°27'1211.6
2017-Mar-14 01:34N 37°44' W 122°41'1110.9
2017-Mar-14 00:33N 37°33' W 122°40'1010.1
2017-Mar-13 23:33N 37°23' W 122°40'1010.2
2017-Mar-13 22:33N 37°13' W 122°40'1110.7
2017-Mar-13 21:33N 37°03' W 122°36'1111.3
2017-Mar-13 20:33N 36°52' W 122°30'1211.6
2017-Mar-13 19:33N 36°42' W 122°25'1111.0
2017-Mar-13 18:33N 36°31' W 122°20'0 0.4
2017-Mar-13 17:33N 36°32' W 122°21'1 1.4
2017-Mar-13 16:33N 36°33' W 122°21'1 0.8
2017-Mar-13 15:33N 36°33' W 122°20'1010.2
2017-Mar-13 14:33N 36°23' W 122°15'1110.9
2017-Mar-13 13:33N 36°14' W 122°09'1010.5
2017-Mar-13 12:33N 36°05' W 122°03'1111.2
2017-Mar-13 11:33N 35°55' W 121°56'1111.4
2017-Mar-13 10:33N 35°45' W 121°49'1111.2
2017-Mar-13 09:33N 35°36' W 121°42'1111.4
2017-Mar-13 08:33N 35°26' W 121°34'1211.5
2017-Mar-13 07:33N 35°16' W 121°27'1111.3
2017-Mar-13 06:33N 35°06' W 121°20'1111.1
2017-Mar-13 05:33N 34°56' W 121°13'1110.6
2017-Mar-13 04:33N 34°47' W 121°07'1110.6
2017-Mar-13 03:33N 34°38' W 121°00'1110.8
2017-Mar-13 02:33N 34°29' W 120°53'1110.5
2017-Mar-13 01:33N 34°24' W 120°42'2811.7
2017-Mar-12 23:08N 34°17' W 120°09'1012.4
2017-Mar-12 22:19N 34°14' W 119°57'1012.4
2017-Mar-12 21:33N 34°11' W 119°46'1212.6
2017-Mar-12 20:33N 34°08' W 119°32'1212.3
2017-Mar-12 19:33N 34°05' W 119°17'1312.4
2017-Mar-12 18:33N 33°59' W 119°04'1111.4
2017-Mar-12 17:33N 33°53' W 118°52'1111.4
2017-Mar-12 16:33N 33°48' W 118°40'1111.3
2017-Mar-12 15:33N 33°42' W 118°29'1010.4
2017-Mar-12 14:34N 33°38' W 118°17'5 5.0
2017-Mar-12 13:33N 33°43' W 118°16'1 0.7
2017-Mar-12 12:31N 33°44' W 118°15'0 0.0
2017-Mar-12 11:28N 33°44' W 118°15'0 0.0
2017-Mar-12 10:31N 33°44' W 118°15'0 0.0
2017-Mar-12 09:31N 33°44' W 118°15'0 0.0
2017-Mar-12 08:25N 33°44' W 118°15'0 0.0
2017-Mar-12 07:31N 33°44' W 118°15'0 0.0
2017-Mar-12 06:31N 33°44' W 118°15'0 0.0
2017-Mar-12 05:28N 33°44' W 118°15'0 0.0
2017-Mar-12 04:28N 33°44' W 118°15'0 0.0
2017-Mar-12 03:31N 33°44' W 118°15'0 0.0
2017-Mar-12 02:28N 33°44' W 118°15'0 0.0
2017-Mar-12 01:31N 33°44' W 118°15'0 0.0
2017-Mar-12 00:31N 33°44' W 118°15'0 0.0
2017-Mar-11 23:31N 33°44' W 118°15'0 0.0
2017-Mar-11 22:31N 33°44' W 118°15'0 0.0
2017-Mar-11 21:31N 33°44' W 118°15'0 0.0
2017-Mar-11 20:31N 33°44' W 118°15'0 0.0
2017-Mar-11 19:31N 33°44' W 118°15'0 0.0
2017-Mar-11 18:31N 33°44' W 118°15'0 0.0
2017-Mar-11 17:25N 33°44' W 118°15'0 0.0
2017-Mar-11 16:31N 33°44' W 118°15'0 0.0
2017-Mar-11 15:31N 33°44' W 118°15'0 0.0
2017-Mar-11 14:25N 33°44' W 118°15'0 0.0
2017-Mar-11 13:31N 33°44' W 118°15'0 0.0
2017-Mar-11 12:28N 33°44' W 118°15'0 0.0
2017-Mar-11 11:31N 33°44' W 118°15'0 0.0
2017-Mar-11 10:31N 33°44' W 118°15'0 0.0
2017-Mar-11 09:31N 33°44' W 118°15'0 0.0
2017-Mar-11 08:31N 33°44' W 118°15'0 0.0
2017-Mar-11 07:31N 33°44' W 118°15'0 0.0
2017-Mar-11 06:31N 33°44' W 118°15'0 0.0
2017-Mar-11 05:31N 33°44' W 118°15'0 0.0
2017-Mar-11 04:31N 33°44' W 118°15'0 0.0
2017-Mar-11 03:31N 33°44' W 118°15'0 0.0
2017-Mar-11 02:31N 33°44' W 118°15'0 0.0
2017-Mar-11 01:25N 33°44' W 118°15'0 0.0
2017-Mar-11 00:31N 33°44' W 118°15'0 0.0
2017-Mar-10 23:31N 33°44' W 118°15'0 0.0
2017-Mar-10 22:31N 33°44' W 118°15'0 0.0
2017-Mar-10 21:31N 33°44' W 118°15'0 0.0
2017-Mar-10 20:31N 33°44' W 118°15'0 0.0
2017-Mar-10 19:31N 33°44' W 118°15'0 0.0
2017-Mar-10 18:31N 33°44' W 118°15'0 0.0
2017-Mar-10 17:31N 33°44' W 118°15'0 0.0
2017-Mar-10 16:31N 33°44' W 118°15'0 0.0
2017-Mar-10 15:31N 33°44' W 118°15'0 0.0
2017-Mar-10 14:28N 33°44' W 118°15'0 0.0
2017-Mar-10 13:28N 33°44' W 118°15'0 0.0
2017-Mar-10 12:28N 33°44' W 118°16'0 0.1
2017-Mar-10 11:31N 33°44' W 118°15'0 0.0
2017-Mar-10 10:31N 33°44' W 118°15'0 0.0
2017-Mar-10 09:31N 33°44' W 118°15'0 0.0
2017-Mar-10 08:31N 33°44' W 118°15'0 0.0
2017-Mar-10 07:31N 33°44' W 118°15'0 0.0
2017-Mar-10 06:31N 33°44' W 118°15'0 0.0
2017-Mar-10 05:31N 33°44' W 118°15'0 0.0
2017-Mar-10 04:31N 33°44' W 118°15'0 0.0
2017-Mar-10 03:28N 33°44' W 118°15'0 0.0
2017-Mar-10 02:25N 33°44' W 118°15'0 0.0
2017-Mar-10 01:31N 33°44' W 118°15'0 0.0
2017-Mar-10 00:28N 33°44' W 118°15'0 0.0
2017-Mar-09 23:31N 33°44' W 118°15'0 0.0
2017-Mar-09 22:31N 33°44' W 118°15'0 0.0
2017-Mar-09 21:31N 33°44' W 118°15'0 0.0
2017-Mar-09 20:22N 33°44' W 118°15'0 0.0
2017-Mar-09 19:31N 33°44' W 118°15'0 0.0
2017-Mar-09 18:31N 33°44' W 118°15'0 0.0
2017-Mar-09 17:31N 33°44' W 118°15'0 0.0
2017-Mar-09 16:31N 33°44' W 118°15'0 0.0
2017-Mar-09 15:31N 33°44' W 118°15'0 0.0
2017-Mar-09 14:31N 33°44' W 118°15'1 0.9
2017-Mar-09 13:33N 33°43' W 118°16'6 5.6
2017-Mar-09 12:33N 33°38' W 118°14'7 6.6
2017-Mar-09 11:33N 33°35' W 118°21'8 8.4
2017-Mar-09 10:33N 33°36' W 118°31'8 8.4
2017-Mar-09 09:33N 33°36' W 118°41'1111.1
2017-Mar-09 08:33N 33°36' W 118°55'1211.8
2017-Mar-09 07:33N 33°36' W 119°09'1616.1
2017-Mar-09 06:33N 33°36' W 119°28'1816.2
2017-Mar-09 05:26N 33°36' W 119°50'1416.0
2017-Mar-09 04:33N 33°36' W 120°07'2216.2
2017-Mar-09 03:12N 33°36' W 120°33'1016.2
2017-Mar-09 02:33N 33°36' W 120°46'1616.5
2017-Mar-09 01:33N 33°36' W 121°06'1616.5
2017-Mar-09 00:33N 33°36' W 121°25'1716.3
2017-Mar-08 23:32N 33°36' W 121°45'1616.3
2017-Mar-08 22:33N 33°36' W 122°05'1616.1
2017-Mar-08 21:32N 33°36' W 122°24'2016.2
2017-Mar-08 20:19N 33°36' W 122°48'1216.1
2017-Mar-08 19:33N 33°36' W 123°03'1616.2
2017-Mar-08 18:33N 33°36' W 123°22'1716.0
2017-Mar-08 17:30N 33°36' W 123°42'  
Track history (hours):
 
Tides and Currents Weather Stations Pressure Air Temp Water Temp Dewpoint Dewpoint Depression Visibility Wind Speed Wind Dir Waves Ship Positions

CMA CGM Columba

Last reported at 2017-Mar-16 00:34 UTC. Time now 2017-Mar-23 18:33 UTC.
Position N 38°11' W 124°11'.

Length 363 m; draft 13.2 m.

Type: Ship (hazmat cat A). MMSI: 235077448.

Date/timePositionNaut miles runAvg speedWind from/ knotsBaromVisibWave heightAir tempDewpointWater temp
2017-Mar-16 00:34N 38°11' W 124°11'1313.1
2017-Mar-15 23:33N 38°11' W 123°55'1313.0
2017-Mar-15 22:34N 38°10' W 123°38'1312.7
2017-Mar-15 21:33N 38°09' W 123°22'1212.3
2017-Mar-15 20:34N 38°01' W 123°11'1313.0
2017-Mar-15 19:33N 37°53' W 122°57'1312.9
2017-Mar-15 18:33N 37°46' W 122°44'1111.1
2017-Mar-15 17:33N 37°49' W 122°30'8 8.4
2017-Mar-15 16:33N 37°48' W 122°20'2 1.8
2017-Mar-15 15:33N 37°48' W 122°17'1 1.2
2017-Mar-15 14:31N 37°48' W 122°19'0 0.0
2017-Mar-15 13:31N 37°48' W 122°19'0 0.0
2017-Mar-15 12:31N 37°48' W 122°19'0 0.0
2017-Mar-15 11:31N 37°48' W 122°19'0 0.0
2017-Mar-15 10:31N 37°48' W 122°19'0 0.0
2017-Mar-15 09:31N 37°48' W 122°19'0 0.0
2017-Mar-15 08:31N 37°48' W 122°19'0 0.0
2017-Mar-15 07:31N 37°48' W 122°19'0 0.0
2017-Mar-15 06:31N 37°48' W 122°19'0 0.0
2017-Mar-15 05:31N 37°48' W 122°19'0 0.0
2017-Mar-15 04:31N 37°48' W 122°19'0 0.0
2017-Mar-15 03:31N 37°48' W 122°19'0 0.0
2017-Mar-15 02:31N 37°48' W 122°19'0 0.0
2017-Mar-15 01:31N 37°48' W 122°19'0 0.0
2017-Mar-15 00:31N 37°48' W 122°19'0 0.0
2017-Mar-14 23:31N 37°48' W 122°19'0 0.0
2017-Mar-14 22:31N 37°48' W 122°19'0 0.0
2017-Mar-14 21:31N 37°48' W 122°19'0 0.0
2017-Mar-14 20:31N 37°48' W 122°19'0 0.0
2017-Mar-14 19:31N 37°48' W 122°19'0 0.0
2017-Mar-14 18:31N 37°48' W 122°19'0 0.0
2017-Mar-14 17:31N 37°48' W 122°19'0 0.0
2017-Mar-14 16:31N 37°48' W 122°19'0 0.0
2017-Mar-14 15:31N 37°48' W 122°19'0 0.0
2017-Mar-14 14:31N 37°48' W 122°19'0 0.0
2017-Mar-14 13:31N 37°48' W 122°19'0 0.0
2017-Mar-14 12:31N 37°48' W 122°19'0 0.0
2017-Mar-14 11:31N 37°48' W 122°19'0 0.0
2017-Mar-14 10:31N 37°48' W 122°19'0 0.0
2017-Mar-14 09:31N 37°48' W 122°19'0 0.0
2017-Mar-14 08:31N 37°48' W 122°19'0 0.0
2017-Mar-14 07:31N 37°48' W 122°19'0 0.0
2017-Mar-14 06:31N 37°48' W 122°19'0 0.0
2017-Mar-14 05:31N 37°48' W 122°19'0 0.0
2017-Mar-14 04:31N 37°48' W 122°19'0 0.0
2017-Mar-14 03:32N 37°48' W 122°19'7 6.8
2017-Mar-14 02:33N 37°49' W 122°27'1211.6
2017-Mar-14 01:34N 37°44' W 122°41'1110.9
2017-Mar-14 00:33N 37°33' W 122°40'1010.1
2017-Mar-13 23:33N 37°23' W 122°40'1010.2
2017-Mar-13 22:33N 37°13' W 122°40'1110.7
2017-Mar-13 21:33N 37°03' W 122°36'1111.3
2017-Mar-13 20:33N 36°52' W 122°30'1211.6
2017-Mar-13 19:33N 36°42' W 122°25'1111.0
2017-Mar-13 18:33N 36°31' W 122°20'0 0.4
2017-Mar-13 17:33N 36°32' W 122°21'1 1.4
2017-Mar-13 16:33N 36°33' W 122°21'1 0.8
2017-Mar-13 15:33N 36°33' W 122°20'1010.2
2017-Mar-13 14:33N 36°23' W 122°15'1110.9
2017-Mar-13 13:33N 36°14' W 122°09'1010.5
2017-Mar-13 12:33N 36°05' W 122°03'1111.2
2017-Mar-13 11:33N 35°55' W 121°56'1111.4
2017-Mar-13 10:33N 35°45' W 121°49'1111.2
2017-Mar-13 09:33N 35°36' W 121°42'1111.4
2017-Mar-13 08:33N 35°26' W 121°34'1211.5
2017-Mar-13 07:33N 35°16' W 121°27'1111.3
2017-Mar-13 06:33N 35°06' W 121°20'1111.1
2017-Mar-13 05:33N 34°56' W 121°13'1110.6
2017-Mar-13 04:33N 34°47' W 121°07'1110.6
2017-Mar-13 03:33N 34°38' W 121°00'1110.8
2017-Mar-13 02:33N 34°29' W 120°53'1110.5
2017-Mar-13 01:33N 34°24' W 120°42'2811.7
2017-Mar-12 23:08N 34°17' W 120°09'1012.4
2017-Mar-12 22:19N 34°14' W 119°57'1012.4
2017-Mar-12 21:33N 34°11' W 119°46'1212.6
2017-Mar-12 20:33N 34°08' W 119°32'1212.3
2017-Mar-12 19:33N 34°05' W 119°17'1312.4
2017-Mar-12 18:33N 33°59' W 119°04'1111.4
2017-Mar-12 17:33N 33°53' W 118°52'1111.4
2017-Mar-12 16:33N 33°48' W 118°40'1111.3
2017-Mar-12 15:33N 33°42' W 118°29'1010.4
2017-Mar-12 14:34N 33°38' W 118°17'5 5.0
2017-Mar-12 13:33N 33°43' W 118°16'1 0.7
2017-Mar-12 12:31N 33°44' W 118°15'0 0.0
2017-Mar-12 11:28N 33°44' W 118°15'0 0.0
2017-Mar-12 10:31N 33°44' W 118°15'0 0.0
2017-Mar-12 09:31N 33°44' W 118°15'0 0.0
2017-Mar-12 08:25N 33°44' W 118°15'0 0.0
2017-Mar-12 07:31N 33°44' W 118°15'0 0.0
2017-Mar-12 06:31N 33°44' W 118°15'0 0.0
2017-Mar-12 05:28N 33°44' W 118°15'0 0.0
2017-Mar-12 04:28N 33°44' W 118°15'0 0.0
2017-Mar-12 03:31N 33°44' W 118°15'0 0.0
2017-Mar-12 02:28N 33°44' W 118°15'0 0.0
2017-Mar-12 01:31N 33°44' W 118°15'0 0.0
2017-Mar-12 00:31N 33°44' W 118°15'0 0.0
2017-Mar-11 23:31N 33°44' W 118°15'0 0.0
2017-Mar-11 22:31N 33°44' W 118°15'0 0.0
2017-Mar-11 21:31N 33°44' W 118°15'0 0.0
2017-Mar-11 20:31N 33°44' W 118°15'0 0.0
2017-Mar-11 19:31N 33°44' W 118°15'0 0.0
2017-Mar-11 18:31N 33°44' W 118°15'0 0.0
2017-Mar-11 17:25N 33°44' W 118°15'0 0.0
2017-Mar-11 16:31N 33°44' W 118°15'0 0.0
2017-Mar-11 15:31N 33°44' W 118°15'0 0.0
2017-Mar-11 14:25N 33°44' W 118°15'0 0.0
2017-Mar-11 13:31N 33°44' W 118°15'0 0.0
2017-Mar-11 12:28N 33°44' W 118°15'0 0.0
2017-Mar-11 11:31N 33°44' W 118°15'0 0.0
2017-Mar-11 10:31N 33°44' W 118°15'0 0.0
2017-Mar-11 09:31N 33°44' W 118°15'0 0.0
2017-Mar-11 08:31N 33°44' W 118°15'0 0.0
2017-Mar-11 07:31N 33°44' W 118°15'0 0.0
2017-Mar-11 06:31N 33°44' W 118°15'0 0.0
2017-Mar-11 05:31N 33°44' W 118°15'0 0.0
2017-Mar-11 04:31N 33°44' W 118°15'0 0.0
2017-Mar-11 03:31N 33°44' W 118°15'0 0.0
2017-Mar-11 02:31N 33°44' W 118°15'0 0.0
2017-Mar-11 01:25N 33°44' W 118°15'0 0.0
2017-Mar-11 00:31N 33°44' W 118°15'0 0.0
2017-Mar-10 23:31N 33°44' W 118°15'0 0.0
2017-Mar-10 22:31N 33°44' W 118°15'0 0.0
2017-Mar-10 21:31N 33°44' W 118°15'0 0.0
2017-Mar-10 20:31N 33°44' W 118°15'0 0.0
2017-Mar-10 19:31N 33°44' W 118°15'0 0.0
2017-Mar-10 18:31N 33°44' W 118°15'0 0.0
2017-Mar-10 17:31N 33°44' W 118°15'0 0.0
2017-Mar-10 16:31N 33°44' W 118°15'0 0.0
2017-Mar-10 15:31N 33°44' W 118°15'0 0.0
2017-Mar-10 14:28N 33°44' W 118°15'0 0.0
2017-Mar-10 13:28N 33°44' W 118°15'0 0.0
2017-Mar-10 12:28N 33°44' W 118°16'0 0.1
2017-Mar-10 11:31N 33°44' W 118°15'0 0.0
2017-Mar-10 10:31N 33°44' W 118°15'0 0.0
2017-Mar-10 09:31N 33°44' W 118°15'0 0.0
2017-Mar-10 08:31N 33°44' W 118°15'0 0.0
2017-Mar-10 07:31N 33°44' W 118°15'0 0.0
2017-Mar-10 06:31N 33°44' W 118°15'0 0.0
2017-Mar-10 05:31N 33°44' W 118°15'0 0.0
2017-Mar-10 04:31N 33°44' W 118°15'0 0.0
2017-Mar-10 03:28N 33°44' W 118°15'0 0.0
2017-Mar-10 02:25N 33°44' W 118°15'0 0.0
2017-Mar-10 01:31N 33°44' W 118°15'0 0.0
2017-Mar-10 00:28N 33°44' W 118°15'0 0.0
2017-Mar-09 23:31N 33°44' W 118°15'0 0.0
2017-Mar-09 22:31N 33°44' W 118°15'0 0.0
2017-Mar-09 21:31N 33°44' W 118°15'0 0.0
2017-Mar-09 20:22N 33°44' W 118°15'0 0.0
2017-Mar-09 19:31N 33°44' W 118°15'0 0.0
2017-Mar-09 18:31N 33°44' W 118°15'0 0.0
2017-Mar-09 17:31N 33°44' W 118°15'0 0.0
2017-Mar-09 16:31N 33°44' W 118°15'0 0.0
2017-Mar-09 15:31N 33°44' W 118°15'0 0.0
2017-Mar-09 14:31N 33°44' W 118°15'1 0.9
2017-Mar-09 13:33N 33°43' W 118°16'6 5.6
2017-Mar-09 12:33N 33°38' W 118°14'7 6.6
2017-Mar-09 11:33N 33°35' W 118°21'8 8.4
2017-Mar-09 10:33N 33°36' W 118°31'8 8.4
2017-Mar-09 09:33N 33°36' W 118°41'1111.1
2017-Mar-09 08:33N 33°36' W 118°55'1211.8
2017-Mar-09 07:33N 33°36' W 119°09'1616.1
2017-Mar-09 06:33N 33°36' W 119°28'1816.2
2017-Mar-09 05:26N 33°36' W 119°50'1416.0
2017-Mar-09 04:33N 33°36' W 120°07'2216.2
2017-Mar-09 03:12N 33°36' W 120°33'1016.2
2017-Mar-09 02:33N 33°36' W 120°46'1616.5
2017-Mar-09 01:33N 33°36' W 121°06'1616.5
2017-Mar-09 00:33N 33°36' W 121°25'1716.3
2017-Mar-08 23:32N 33°36' W 121°45'1616.3
2017-Mar-08 22:33N 33°36' W 122°05'1616.1
2017-Mar-08 21:32N 33°36' W 122°24'2016.2
2017-Mar-08 20:19N 33°36' W 122°48'1216.1
2017-Mar-08 19:33N 33°36' W 123°03'1616.2
2017-Mar-08 18:33N 33°36' W 123°22'1716.0
2017-Mar-08 17:30N 33°36' W 123°42'  

Dump ship's entire track history